Time;durP1;ratioP1;P1;durP2;ratioP2;P2;SDS_P1;SDS_P2;PMS_P1;PMS_P2;Temp;Humidity;BMP_temperature;BMP_pressure;BME280_temperature;BME280_humidity;BME280_pressure;Samples;Min_cycle;Max_cycle;Signal;HPM_P1;HPM_P2
2024/02/22 00:02:05;;;;;;;5.93;4.50;;;9.70;99.90;;;;;;5031754;28;20414;-75
2024/02/22 00:04:31;;;;;;;8.83;4.90;;;9.70;99.90;;;;;;5031462;28;20394;-74
2024/02/22 00:06:57;;;;;;;7.55;5.25;;;9.60;99.90;;;;;;5031836;28;20437;-73
2024/02/22 00:09:22;;;;;;;6.37;4.33;;;9.50;99.90;;;;;;5031853;28;20731;-73
2024/02/22 00:11:48;;;;;;;9.47;6.30;;;9.60;99.90;;;;;;5031484;28;20391;-73
2024/02/22 00:14:14;;;;;;;4.90;3.90;;;9.70;99.90;;;;;;5031336;28;20382;-75
2024/02/22 00:16:40;;;;;;;6.00;4.47;;;9.60;99.90;;;;;;5030822;28;20383;-74
2024/02/22 00:19:05;;;;;;;6.95;4.07;;;9.60;99.90;;;;;;5031359;28;20878;-73
2024/02/22 00:21:31;;;;;;;5.47;4.07;;;9.70;99.90;;;;;;5031370;28;20379;-74
2024/02/22 00:23:57;;;;;;;4.40;3.30;;;9.60;99.90;;;;;;5031225;28;20649;-73
2024/02/22 00:26:22;;;;;;;5.37;3.53;;;9.60;99.90;;;;;;5031223;28;20414;-72
2024/02/22 00:28:48;;;;;;;4.50;3.00;;;9.60;99.90;;;;;;5031088;28;20379;-74
2024/02/22 00:31:14;;;;;;;5.82;3.80;;;9.70;99.90;;;;;;5030963;28;20398;-74
2024/02/22 00:33:39;;;;;;;6.60;3.13;;;9.70;99.90;;;;;;5030904;28;20913;-73
2024/02/22 00:36:05;;;;;;;5.17;3.77;;;9.80;99.90;;;;;;5030604;28;20901;-73
2024/02/22 00:38:32;;;;;;;3.20;2.47;;;9.70;99.90;;;;;;5030735;28;20921;-74
2024/02/22 00:40:57;;;;;;;4.40;2.92;;;9.70;99.90;;;;;;5030995;28;20595;-73
2024/02/22 00:43:23;;;;;;;4.90;3.70;;;9.70;99.90;;;;;;5030861;28;20397;-75
2024/02/22 00:45:48;;;;;;;9.80;5.17;;;9.70;99.90;;;;;;5030623;28;20749;-73
2024/02/22 00:48:14;;;;;;;6.10;3.80;;;9.70;99.90;;;;;;5030749;28;20885;-73
2024/02/22 00:50:39;;;;;;;6.60;3.95;;;9.70;99.90;;;;;;5030532;28;20379;-74
2024/02/22 00:53:05;;;;;;;3.50;3.20;;;9.70;99.90;;;;;;5030830;28;20762;-73
2024/02/22 00:55:30;;;;;;;4.78;3.70;;;9.70;99.90;;;;;;5030565;28;20793;-73
2024/02/22 00:57:56;;;;;;;4.43;3.85;;;9.80;99.90;;;;;;5030316;28;20395;-72
2024/02/22 01:00:21;;;;;;;4.50;3.27;;;9.80;99.90;;;;;;5032622;28;20399;-72
2024/02/22 01:02:47;;;;;;;8.90;4.27;;;9.70;99.90;;;;;;5034245;28;20379;-74
2024/02/22 01:05:12;;;;;;;6.90;4.57;;;9.80;99.90;;;;;;5034239;28;20733;-74
2024/02/22 01:07:38;;;;;;;4.10;3.70;;;9.70;99.90;;;;;;5034267;28;20937;-71
2024/02/22 01:10:05;;;;;;;4.85;4.00;;;9.80;99.90;;;;;;5034335;28;20731;-72
2024/02/22 01:12:30;;;;;;;5.25;3.80;;;9.80;99.90;;;;;;5034400;28;20383;-74
2024/02/22 01:14:56;;;;;;;7.45;4.13;;;9.70;99.90;;;;;;5032769;28;20470;-71
2024/02/22 01:17:21;;;;;;;4.47;3.65;;;9.80;99.90;;;;;;5033681;28;20431;-72
2024/02/22 01:19:47;;;;;;;4.00;3.40;;;9.70;99.90;;;;;;5033947;28;20423;-73
2024/02/22 01:22:13;;;;;;;8.10;6.13;;;9.80;99.90;;;;;;5033860;28;20505;-72
2024/02/22 01:24:40;;;;;;;5.00;3.60;;;9.80;99.90;;;;;;5033447;28;20446;-72
2024/02/22 01:27:07;;;;;;;6.38;3.63;;;9.70;99.90;;;;;;5033629;28;20399;-72
2024/02/22 01:29:33;;;;;;;5.88;4.57;;;9.90;99.90;;;;;;5033546;28;20484;-72
2024/02/22 01:31:58;;;;;;;6.73;3.40;;;9.90;99.90;;;;;;5034014;28;20458;-73
2024/02/22 01:34:24;;;;;;;3.83;3.07;;;9.90;99.90;;;;;;5033238;28;20417;-72
2024/02/22 01:36:50;;;;;;;5.23;3.40;;;9.90;99.90;;;;;;5033452;28;20383;-71
2024/02/22 01:39:15;;;;;;;4.27;3.00;;;9.90;99.90;;;;;;5033860;28;20387;-70
2024/02/22 01:41:41;;;;;;;3.10;2.77;;;10.00;99.90;;;;;;5033517;28;20805;-71
2024/02/22 01:44:07;;;;;;;2.00;1.90;;;9.90;99.90;;;;;;5033490;28;20391;-71
2024/02/22 01:46:33;;;;;;;5.80;4.20;;;9.90;99.90;;;;;;5034343;28;20876;-70
2024/02/22 01:49:00;;;;;;;3.30;3.00;;;9.90;99.90;;;;;;5034417;28;20746;-70
2024/02/22 01:51:26;;;;;;;3.05;2.60;;;9.90;99.90;;;;;;5033952;28;20396;-70
2024/02/22 01:53:52;;;;;;;2.70;2.50;;;10.00;99.90;;;;;;5033601;28;20754;-71
2024/02/22 01:56:20;;;;;;;3.00;1.80;;;10.00;99.90;;;;;;5032936;28;20466;-71
2024/02/22 01:58:48;;;;;;;3.55;2.67;;;10.00;99.90;;;;;;5033041;28;20909;-72
2024/02/22 02:01:13;;;;;;;4.03;2.85;;;10.00;99.90;;;;;;5033021;28;20889;-72
2024/02/22 02:03:40;;;;;;;2.97;2.30;;;10.00;99.90;;;;;;5032892;28;20461;-71
2024/02/22 02:06:05;;;;;;;3.83;3.00;;;10.00;99.90;;;;;;5033148;28;20375;-72
2024/02/22 02:08:32;;;;;;;4.60;2.30;;;10.00;99.90;;;;;;5032930;28;20548;-71
2024/02/22 02:10:58;;;;;;;4.28;2.67;;;10.00;99.90;;;;;;5033329;28;20470;-73
2024/02/22 02:13:24;;;;;;;4.18;3.20;;;10.00;99.90;;;;;;5033182;28;20462;-72
2024/02/22 02:15:50;;;;;;;2.70;2.25;;;10.10;99.90;;;;;;5033513;28;20430;-72
2024/02/22 02:18:15;;;;;;;5.57;4.10;;;10.10;99.90;;;;;;5033539;28;20486;-72
2024/02/22 02:20:54;;;;;;;2.10;1.57;;;10.20;99.90;;;;;;5033764;28;20491;-71
2024/02/22 02:23:38;;;;;;;3.60;2.20;;;10.10;99.90;;;;;;5036102;28;20405;-74
2024/02/22 02:26:07;;;;;;;4.50;2.50;;;10.10;99.90;;;;;;5035949;28;20795;-75
2024/02/22 02:28:32;;;;;;;4.47;2.47;;;10.00;99.90;;;;;;5036418;28;20966;-75
2024/02/22 02:30:58;;;;;;;4.80;3.50;;;10.00;99.90;;;;;;5035672;28;20401;-75
2024/02/22 02:33:23;;;;;;;2.10;1.90;;;10.00;99.90;;;;;;5033455;28;20391;-74
2024/02/22 02:35:50;;;;;;;3.30;3.00;;;10.00;99.90;;;;;;5033324;28;20398;-72
2024/02/22 02:38:16;;;;;;;2.80;2.20;;;10.00;99.90;;;;;;5033260;28;20481;-73
2024/02/22 02:40:41;;;;;;;2.77;2.30;;;10.00;99.90;;;;;;5032835;28;20478;-74
2024/02/22 02:43:07;;;;;;;3.80;2.43;;;10.00;99.90;;;;;;5033194;28;20746;-74
2024/02/22 02:45:33;;;;;;;4.47;2.10;;;10.10;99.90;;;;;;5033090;28;20387;-75
2024/02/22 02:47:59;;;;;;;2.50;2.10;;;10.10;99.90;;;;;;5033422;28;20387;-73
2024/02/22 02:50:24;;;;;;;1.60;1.50;;;10.10;99.90;;;;;;5033021;28;20387;-72
2024/02/22 02:52:51;;;;;;;1.90;1.50;;;10.20;99.90;;;;;;5032588;28;20462;-71
2024/02/22 02:55:17;;;;;;;3.10;1.90;;;10.10;99.90;;;;;;5032024;28;20390;-73
2024/02/22 02:57:43;;;;;;;3.45;2.17;;;10.00;99.90;;;;;;5032299;28;20402;-72
2024/02/22 03:00:13;;;;;;;1.50;1.25;;;10.10;99.90;;;;;;5032937;28;20391;-74
2024/02/22 03:02:40;;;;;;;1.43;1.20;;;10.10;99.90;;;;;;5032612;28;20462;-75
2024/02/22 03:05:09;;;;;;;3.10;1.50;;;10.10;99.90;;;;;;5032365;28;20387;-74
2024/02/22 03:07:36;;;;;;;1.73;1.63;;;10.10;99.90;;;;;;5032499;28;20398;-73
2024/02/22 03:10:02;;;;;;;1.48;1.30;;;10.10;99.90;;;;;;5032928;28;20391;-74
2024/02/22 03:12:27;;;;;;;2.20;1.60;;;10.10;99.90;;;;;;5032465;28;20393;-75
2024/02/22 03:14:53;;;;;;;2.90;1.30;;;10.10;99.90;;;;;;5032465;28;20531;-74
2024/02/22 03:17:22;;;;;;;1.50;1.30;;;10.20;99.90;;;;;;5031020;28;20399;-73
2024/02/22 03:19:47;;;;;;;1.40;1.30;;;10.30;99.90;;;;;;5032341;28;20384;-75
2024/02/22 03:22:14;;;;;;;1.50;1.30;;;10.20;99.90;;;;;;5032403;28;20437;-74
2024/02/22 03:24:39;;;;;;;1.60;1.50;;;10.20;99.90;;;;;;5029527;28;20403;-74
2024/02/22 03:27:10;;;;;;;2.95;2.00;;;10.20;99.90;;;;;;5031852;28;20806;-72
2024/02/22 03:29:36;;;;;;;3.30;1.50;;;10.20;99.90;;;;;;5032111;28;20929;-73
2024/02/22 03:32:02;;;;;;;1.50;1.40;;;10.20;99.90;;;;;;5030867;28;20964;-72
2024/02/22 03:34:28;;;;;;;2.42;1.73;;;10.10;99.90;;;;;;5031488;28;20391;-74
2024/02/22 03:36:54;;;;;;;1.50;1.30;;;10.10;99.90;;;;;;5030660;28;20395;-75
2024/02/22 03:39:20;;;;;;;3.70;1.42;;;10.20;99.90;;;;;;5032070;28;20387;-75
2024/02/22 03:41:47;;;;;;;1.67;1.50;;;10.20;99.90;;;;;;5032296;28;20702;-74
2024/02/22 03:44:14;;;;;;;1.55;1.45;;;10.30;99.90;;;;;;5032078;28;20538;-75
2024/02/22 03:46:46;;;;;;;2.20;1.50;;;10.20;99.90;;;;;;5031633;28;20395;-74
2024/02/22 03:49:12;;;;;;;1.30;1.15;;;10.20;99.90;;;;;;5031645;28;20383;-73
2024/02/22 03:51:38;;;;;;;2.00;1.50;;;10.30;99.90;;;;;;5031763;28;20383;-73
2024/02/22 03:54:04;;;;;;;1.88;1.15;;;10.30;99.90;;;;;;5031613;28;20394;-73
2024/02/22 03:56:30;;;;;;;1.70;1.20;;;10.30;99.90;;;;;;5031034;28;20465;-71
2024/02/22 03:58:55;;;;;;;2.10;1.50;;;10.30;99.90;;;;;;5031484;28;20474;-73
2024/02/22 04:01:21;;;;;;;1.60;1.50;;;10.30;99.90;;;;;;5031489;28;20387;-72
2024/02/22 04:03:46;;;;;;;3.47;1.30;;;10.20;99.90;;;;;;5030309;28;20394;-75
2024/02/22 04:06:12;;;;;;;2.40;1.52;;;10.20;99.90;;;;;;5032399;28;20390;-74
2024/02/22 04:08:38;;;;;;;1.50;1.40;;;10.30;99.90;;;;;;5032988;28;20474;-74
2024/02/22 04:11:03;;;;;;;1.88;1.50;;;10.30;99.90;;;;;;5031706;28;20387;-74
2024/02/22 04:13:29;;;;;;;2.40;1.50;;;10.20;99.90;;;;;;5033288;28;20462;-73
2024/02/22 04:15:54;;;;;;;1.70;1.60;;;10.20;99.90;;;;;;5031184;28;20452;-73
2024/02/22 04:18:20;;;;;;;1.80;1.47;;;10.30;99.90;;;;;;5030484;28;20421;-74
2024/02/22 04:20:46;;;;;;;2.20;2.00;;;10.20;99.90;;;;;;5029160;28;20873;-72
2024/02/22 04:23:11;;;;;;;1.90;1.70;;;10.20;99.90;;;;;;5030313;28;20434;-74
2024/02/22 04:25:39;;;;;;;2.55;2.00;;;10.20;99.90;;;;;;5029985;28;20806;-74
2024/02/22 04:28:04;;;;;;;3.72;2.10;;;10.10;99.90;;;;;;5030103;28;20383;-72
2024/02/22 04:30:30;;;;;;;2.50;2.20;;;10.10;99.90;;;;;;5030195;28;20394;-72
2024/02/22 04:32:55;;;;;;;5.23;2.90;;;10.20;99.90;;;;;;5030316;28;20835;-72
2024/02/22 04:35:21;;;;;;;4.37;3.80;;;10.10;99.90;;;;;;5030894;28;20474;-74
2024/02/22 04:37:46;;;;;;;3.70;3.40;;;10.10;99.90;;;;;;5034493;28;20426;-74
2024/02/22 04:40:12;;;;;;;3.87;3.33;;;10.10;99.90;;;;;;5034753;28;20419;-73
2024/02/22 04:42:38;;;;;;;4.25;3.75;;;10.10;99.90;;;;;;5033960;28;20383;-75
2024/02/22 04:45:04;;;;;;;5.43;4.00;;;10.10;99.90;;;;;;5034532;28;20450;-74
2024/02/22 04:47:35;;;;;;;5.65;4.30;;;10.10;99.90;;;;;;5034065;28;20386;-72
2024/02/22 04:50:02;;;;;;;5.07;4.30;;;10.10;99.90;;;;;;5034264;28;20403;-74
2024/02/22 04:52:27;;;;;;;7.15;4.25;;;10.10;99.90;;;;;;5033783;28;20796;-74
2024/02/22 04:54:54;;;;;;;4.60;4.20;;;10.10;99.90;;;;;;5033561;28;20403;-73
2024/02/22 04:57:20;;;;;;;5.10;4.10;;;10.20;99.90;;;;;;5033486;28;20489;-74
2024/02/22 04:59:45;;;;;;;4.60;3.20;;;10.20;99.90;;;;;;5033745;28;20657;-75
2024/02/22 05:02:11;;;;;;;3.42;3.13;;;10.20;99.90;;;;;;5033861;28;20822;-74
2024/02/22 05:04:36;;;;;;;3.47;2.67;;;10.30;99.90;;;;;;5033706;28;20395;-74
2024/02/22 05:07:02;;;;;;;2.40;2.20;;;10.30;99.90;;;;;;5035662;28;20749;-75
2024/02/22 05:09:29;;;;;;;1.85;1.70;;;10.20;99.90;;;;;;5035699;28;20390;-74
2024/02/22 05:11:55;;;;;;;2.20;2.00;;;10.30;99.90;;;;;;5034508;28;20379;-73
2024/02/22 05:14:20;;;;;;;2.42;1.90;;;10.40;99.90;;;;;;5033965;28;20382;-73
2024/02/22 05:16:46;;;;;;;2.33;2.13;;;10.30;99.90;;;;;;5032666;28;20713;-72
2024/02/22 05:19:11;;;;;;;4.20;2.00;;;10.30;99.90;;;;;;5033258;28;20383;-72
2024/02/22 05:21:37;;;;;;;2.80;2.00;;;10.30;99.90;;;;;;5033218;28;20391;-73
2024/02/22 05:24:02;;;;;;;2.63;1.90;;;10.30;99.90;;;;;;5032956;28;20391;-73
2024/02/22 05:26:28;;;;;;;2.15;1.70;;;10.40;99.90;;;;;;5032852;28;20383;-74
2024/02/22 05:28:54;;;;;;;1.60;1.50;;;10.40;99.90;;;;;;5033508;28;20453;-74
2024/02/22 05:31:25;;;;;;;4.53;1.80;;;10.40;99.90;;;;;;5032875;28;20379;-74
2024/02/22 05:33:51;;;;;;;2.95;2.00;;;10.40;99.90;;;;;;5033175;28;20962;-72
2024/02/22 05:36:19;;;;;;;6.20;1.70;;;10.40;99.90;;;;;;5032560;28;20386;-75
2024/02/22 05:38:44;;;;;;;2.00;1.70;;;10.50;99.90;;;;;;5035088;28;20411;-73
2024/02/22 05:41:10;;;;;;;2.60;1.60;;;10.50;99.90;;;;;;5034373;28;20403;-72
2024/02/22 05:43:36;;;;;;;1.98;1.45;;;10.50;99.90;;;;;;5041956;28;20387;-73
2024/02/22 05:46:02;;;;;;;2.20;1.40;;;10.40;99.90;;;;;;5043204;28;20385;-73
2024/02/22 05:48:27;;;;;;;1.60;1.40;;;10.40;99.90;;;;;;5043219;28;20383;-73
2024/02/22 05:50:54;;;;;;;2.03;1.70;;;10.40;99.90;;;;;;5034305;28;20399;-73
2024/02/22 05:53:20;;;;;;;1.50;1.40;;;10.40;99.90;;;;;;5044573;28;20391;-73
2024/02/22 05:55:45;;;;;;;1.50;1.40;;;10.40;99.90;;;;;;5049096;28;20396;-75
2024/02/22 05:58:13;;;;;;;2.47;1.45;;;10.40;99.90;;;;;;5054514;28;20738;-79
2024/02/22 06:00:38;;;;;;;2.90;1.60;;;10.40;99.90;;;;;;5046389;28;20399;-74
2024/02/22 06:03:04;;;;;;;2.90;1.90;;;10.50;99.90;;;;;;5045948;28;20385;-74
2024/02/22 06:05:30;;;;;;;1.95;1.40;;;10.40;99.90;;;;;;5052469;28;20412;-72
2024/02/22 06:07:56;;;;;;;5.40;2.03;;;10.40;99.90;;;;;;5032661;28;20423;-74
2024/02/22 06:10:22;;;;;;;3.60;1.30;;;10.50;99.90;;;;;;5032833;28;20387;-77
2024/02/22 06:12:47;;;;;;;2.42;1.40;;;10.50;99.90;;;;;;5034165;28;20753;-74
2024/02/22 06:15:13;;;;;;;2.60;1.70;;;10.40;99.90;;;;;;5034658;28;20387;-75
2024/02/22 06:17:38;;;;;;;2.20;1.63;;;10.50;99.90;;;;;;5041095;28;20976;-74
2024/02/22 06:20:05;;;;;;;2.50;1.60;;;10.50;99.90;;;;;;5040384;28;20433;-76
2024/02/22 06:22:32;;;;;;;3.38;1.80;;;10.50;99.90;;;;;;5034752;28;20393;-77
2024/02/22 06:24:57;;;;;;;2.40;1.40;;;10.50;99.90;;;;;;5038983;28;20436;-77
2024/02/22 06:27:23;;;;;;;2.40;1.80;;;10.50;99.90;;;;;;5052624;28;20430;-76
2024/02/22 06:29:48;;;;;;;2.83;2.10;;;10.50;99.90;;;;;;5054024;28;20394;-76
2024/02/22 06:32:14;;;;;;;2.70;2.17;;;10.50;99.90;;;;;;5044193;28;20428;-75
2024/02/22 06:34:40;;;;;;;6.80;4.70;;;10.50;99.90;;;;;;5053495;28;20385;-76
2024/02/22 06:37:05;;;;;;;5.68;2.97;;;10.50;99.90;;;;;;5055066;28;20409;-77
2024/02/22 06:39:31;;;;;;;5.13;3.70;;;10.60;99.90;;;;;;5055940;28;20385;-76
2024/02/22 06:41:56;;;;;;;3.60;3.00;;;10.70;99.90;;;;;;5065957;28;20385;-77
2024/02/22 06:44:22;;;;;;;7.60;3.87;;;10.50;99.90;;;;;;5057293;28;20476;-76
2024/02/22 06:46:47;;;;;;;4.90;3.90;;;10.50;99.90;;;;;;5054616;28;20381;-77
2024/02/22 06:49:15;;;;;;;5.50;3.50;;;10.40;99.90;;;;;;5057040;28;20426;-77
2024/02/22 06:51:42;;;;;;;4.07;3.60;;;10.40;99.90;;;;;;5056113;28;20435;-75
2024/02/22 06:54:08;;;;;;;4.15;3.58;;;10.30;99.90;;;;;;5066210;28;20429;-77
2024/02/22 06:56:33;;;;;;;8.23;4.30;;;10.20;99.90;;;;;;5058291;28;20416;-77
2024/02/22 06:58:59;;;;;;;4.50;3.90;;;10.20;99.90;;;;;;5053694;28;20397;-76
2024/02/22 07:01:24;;;;;;;7.67;4.50;;;10.20;99.90;;;;;;5054299;28;20381;-77
2024/02/22 07:03:50;;;;;;;7.53;5.00;;;10.30;99.90;;;;;;5056374;28;20382;-76
2024/02/22 07:06:15;;;;;;;7.43;4.50;;;10.30;99.90;;;;;;5053448;28;20892;-77
2024/02/22 07:08:41;;;;;;;7.68;4.75;;;10.40;99.90;;;;;;5053290;28;20395;-77
2024/02/22 07:11:10;;;;;;;9.35;4.70;;;10.30;99.90;;;;;;5054294;28;20389;-75
2024/02/22 07:13:36;;;;;;;6.55;4.50;;;10.40;99.90;;;;;;5052483;28;20396;-76
2024/02/22 07:16:02;;;;;;;8.20;4.83;;;10.40;99.90;;;;;;5054886;28;20390;-78
2024/02/22 07:18:27;;;;;;;8.83;5.40;;;10.50;99.90;;;;;;5053552;28;20973;-77
2024/02/22 07:20:53;;;;;;;9.20;5.40;;;10.60;99.90;;;;;;5058476;28;20736;-77
2024/02/22 07:23:18;;;;;;;9.82;4.78;;;10.70;99.90;;;;;;5061215;28;20396;-79
2024/02/22 07:25:44;;;;;;;6.88;4.60;;;10.70;99.90;;;;;;5057104;28;20393;-75
2024/02/22 07:28:11;;;;;;;4.85;3.90;;;10.70;99.90;;;;;;5057143;28;20815;-77
2024/02/22 07:30:37;;;;;;;5.90;4.10;;;10.80;99.90;;;;;;5057962;28;20392;-76
2024/02/22 07:33:03;;;;;;;4.45;3.90;;;10.90;99.90;;;;;;5056082;28;20420;-75
2024/02/22 07:35:30;;;;;;;6.95;3.95;;;11.00;99.90;;;;;;5054065;28;20381;-80
2024/02/22 07:37:56;;;;;;;6.43;3.90;;;11.00;99.10;;;;;;5055290;28;20409;-77
2024/02/22 07:40:21;;;;;;;4.88;3.40;;;11.10;97.90;;;;;;5053088;28;20438;-76
2024/02/22 07:42:47;;;;;;;49.67;26.03;;;11.30;94.90;;;;;;5052637;28;20433;-79
2024/02/22 07:45:12;;;;;;;8.87;4.07;;;11.20;94.80;;;;;;5054484;28;20382;-76
2024/02/22 07:47:39;;;;;;;8.33;3.97;;;11.20;94.00;;;;;;5052082;28;20412;-77
2024/02/22 07:50:10;;;;;;;6.85;4.65;;;11.30;92.40;;;;;;5054209;28;20451;-79
2024/02/22 07:52:41;;;;;;;8.20;5.00;;;11.30;92.50;;;;;;5051868;28;20419;-77
2024/02/22 07:55:07;;;;;;;5.50;3.20;;;11.40;93.20;;;;;;5052398;28;20447;-78
2024/02/22 07:57:33;;;;;;;6.60;3.97;;;11.40;91.30;;;;;;5053221;28;20764;-77
2024/02/22 07:59:58;;;;;;;5.22;3.40;;;11.30;92.00;;;;;;5054783;28;20421;-77
2024/02/22 08:02:24;;;;;;;3.30;2.70;;;11.30;92.70;;;;;;5060856;28;20438;-77
2024/02/22 08:04:50;;;;;;;6.25;3.97;;;11.30;91.20;;;;;;5064267;28;20454;-77
2024/02/22 08:07:17;;;;;;;9.80;4.72;;;11.50;89.60;;;;;;5078066;28;20490;-75
2024/02/22 08:09:42;;;;;;;8.10;4.50;;;11.50;90.90;;;;;;5059293;28;20412;-76
2024/02/22 08:12:09;;;;;;;5.50;3.43;;;11.60;87.50;;;;;;5052854;28;20382;-76
2024/02/22 08:14:35;;;;;;;8.00;2.60;;;11.60;86.90;;;;;;5053407;28;20418;-77
2024/02/22 08:17:00;;;;;;;4.77;3.40;;;11.50;86.70;;;;;;5052893;28;20407;-76
2024/02/22 08:19:26;;;;;;;5.33;2.60;;;11.60;88.40;;;;;;5063047;28;20431;-75
2024/02/22 08:21:51;;;;;;;6.13;3.35;;;11.50;87.10;;;;;;5061044;28;20404;-77
2024/02/22 08:24:17;;;;;;;6.07;3.22;;;11.40;89.50;;;;;;5052383;28;20414;-78
2024/02/22 08:26:43;;;;;;;5.40;3.60;;;11.50;87.70;;;;;;5051860;28;20396;-77
2024/02/22 08:29:09;;;;;;;5.65;3.33;;;11.50;88.70;;;;;;5052381;28;20484;-77
2024/02/22 08:31:35;;;;;;;3.63;2.67;;;11.50;88.00;;;;;;5054776;28;20385;-77
2024/02/22 08:34:00;;;;;;;5.80;3.70;;;11.60;87.90;;;;;;5055630;28;20389;-75
2024/02/22 08:36:26;;;;;;;3.73;3.10;;;11.70;86.50;;;;;;5069126;28;20428;-76
2024/02/22 08:38:51;;;;;;;5.28;3.10;;;11.70;85.90;;;;;;5056808;28;20401;-77
2024/02/22 08:41:17;;;;;;;4.60;2.85;;;11.60;87.40;;;;;;5054340;28;20388;-76
2024/02/22 08:43:43;;;;;;;4.78;3.40;;;11.70;85.20;;;;;;5052481;28;20384;-78
2024/02/22 08:46:11;;;;;;;4.27;3.60;;;11.80;85.30;;;;;;5051205;28;20377;-75
2024/02/22 08:48:36;;;;;;;4.43;2.90;;;11.80;85.10;;;;;;5051564;28;20393;-76
2024/02/22 08:51:02;;;;;;;2.53;2.33;;;11.90;83.30;;;;;;5051265;28;20389;-77
2024/02/22 08:53:27;;;;;;;7.23;4.60;;;11.80;84.70;;;;;;5051732;28;20496;-76
2024/02/22 08:55:53;;;;;;;5.53;3.33;;;11.80;86.80;;;;;;5051716;28;20392;-77
2024/02/22 08:58:18;;;;;;;4.50;3.10;;;11.80;85.60;;;;;;5051032;28;20511;-77
2024/02/22 09:00:44;;;;;;;5.20;3.30;;;11.90;86.20;;;;;;5050461;28;20389;-77
2024/02/22 09:03:10;;;;;;;3.42;2.50;;;12.00;84.70;;;;;;5051309;28;20884;-76
2024/02/22 09:05:36;;;;;;;3.22;2.70;;;12.10;81.10;;;;;;5051018;28;20396;-78
2024/02/22 09:08:02;;;;;;;5.20;2.40;;;12.20;80.80;;;;;;5051840;28;20389;-75
2024/02/22 09:10:28;;;;;;;3.45;2.80;;;12.30;78.10;;;;;;5051249;28;20868;-77
2024/02/22 09:12:54;;;;;;;4.70;3.00;;;12.20;79.10;;;;;;5049495;28;20396;-77
2024/02/22 09:15:19;;;;;;;4.57;3.20;;;12.20;80.70;;;;;;5051166;28;20396;-75
2024/02/22 09:17:45;;;;;;;3.95;2.70;;;12.20;82.10;;;;;;5050343;28;20404;-77
2024/02/22 09:20:12;;;;;;;5.03;3.20;;;12.30;80.50;;;;;;5051549;28;20443;-76
2024/02/22 09:22:40;;;;;;;4.70;2.80;;;12.40;78.30;;;;;;5052343;28;20471;-77
2024/02/22 09:25:06;;;;;;;7.57;4.20;;;12.40;77.20;;;;;;5055585;28;20872;-77
2024/02/22 09:27:33;;;;;;;4.05;2.70;;;12.30;78.00;;;;;;5055353;28;20393;-77
2024/02/22 09:30:01;;;;;;;8.25;3.03;;;12.30;79.10;;;;;;5060502;28;20477;-77
2024/02/22 09:32:27;;;;;;;8.02;3.47;;;12.30;77.90;;;;;;5054866;28;20389;-76
2024/02/22 09:34:53;;;;;;;3.92;2.83;;;12.30;78.50;;;;;;5055007;28;20381;-76
2024/02/22 09:37:19;;;;;;;7.03;3.53;;;12.40;76.70;;;;;;5055936;28;20472;-77
2024/02/22 09:39:46;;;;;;;4.80;3.13;;;12.40;76.90;;;;;;5056061;28;20388;-77
2024/02/22 09:42:12;;;;;;;8.40;3.40;;;12.50;76.20;;;;;;5054174;28;20377;-76
2024/02/22 09:44:39;;;;;;;6.55;3.67;;;12.50;75.60;;;;;;5055301;28;20399;-76
2024/02/22 09:47:04;;;;;;;6.22;3.30;;;12.50;77.60;;;;;;5055338;28;20381;-78
2024/02/22 09:49:31;;;;;;;8.13;3.75;;;12.60;76.90;;;;;;5055020;28;20396;-77
2024/02/22 09:51:56;;;;;;;5.80;3.83;;;12.60;74.80;;;;;;5055156;28;20460;-77
2024/02/22 09:54:22;;;;;;;7.07;3.17;;;12.70;74.10;;;;;;5054331;28;20420;-76
2024/02/22 09:56:49;;;;;;;3.85;3.15;;;12.70;73.10;;;;;;5055857;28;20382;-76
2024/02/22 09:59:16;;;;;;;2.50;2.13;;;12.70;73.90;;;;;;5056510;28;20419;-77
2024/02/22 10:01:43;;;;;;;4.07;3.13;;;12.60;71.20;;;;;;5060040;28;20385;-77
2024/02/22 10:04:11;;;;;;;7.28;3.50;;;12.80;70.60;;;;;;5062675;28;20377;-76
2024/02/22 10:06:37;;;;;;;3.13;2.28;;;13.10;67.70;;;;;;5058331;28;20377;-77
2024/02/22 10:09:04;;;;;;;3.83;2.10;;;13.20;65.60;;;;;;5055389;28;20386;-76
2024/02/22 10:11:30;;;;;;;5.73;2.83;;;13.20;64.40;;;;;;5055964;28;20389;-77
2024/02/22 10:13:58;;;;;;;4.82;2.67;;;13.20;64.30;;;;;;5062467;28;20405;-76
2024/02/22 10:16:25;;;;;;;4.95;2.60;;;13.20;64.80;;;;;;5059037;28;20423;-76
2024/02/22 10:18:50;;;;;;;2.50;1.42;;;13.30;65.10;;;;;;5059962;28;20460;-77
2024/02/22 10:21:18;;;;;;;3.58;2.42;;;13.30;63.70;;;;;;5055978;28;20887;-75
2024/02/22 10:23:53;;;;;;;5.15;1.90;;;13.40;62.90;;;;;;5053224;28;20378;-77
2024/02/22 10:26:18;;;;;;;3.10;2.20;;;13.60;59.80;;;;;;5052061;28;20392;-77
2024/02/22 10:28:55;;;;;;;4.13;2.07;;;13.60;60.30;;;;;;5053231;28;20381;-75
2024/02/22 10:31:20;;;;;;;3.35;2.30;;;13.60;60.10;;;;;;5052803;28;20385;-75
2024/02/22 10:33:47;;;;;;;2.40;1.40;;;13.50;62.00;;;;;;5052566;28;20712;-77
2024/02/22 10:36:14;;;;;;;2.50;1.70;;;13.20;63.90;;;;;;5052658;28;20388;-77
2024/02/22 10:38:40;;;;;;;3.33;1.60;;;13.30;63.70;;;;;;5052538;28;20715;-77
2024/02/22 10:41:09;;;;;;;3.95;2.13;;;13.50;62.70;;;;;;5053431;28;20385;-76
2024/02/22 10:43:38;;;;;;;9.07;1.67;;;13.80;61.10;;;;;;5052372;28;20448;-75
2024/02/22 10:46:07;;;;;;;4.68;2.05;;;13.90;58.00;;;;;;5052331;28;20409;-77
2024/02/22 10:48:35;;;;;;;2.53;1.73;;;14.00;58.50;;;;;;5052111;28;20439;-77
2024/02/22 10:51:04;;;;;;;3.50;1.52;;;14.10;57.30;;;;;;5052787;28;20381;-75
2024/02/22 10:53:35;;;;;;;4.38;2.20;;;14.20;56.70;;;;;;5053588;28;20389;-77
2024/02/22 10:56:01;;;;;;;5.70;2.00;;;14.30;55.70;;;;;;5055920;28;20392;-76
2024/02/22 10:58:28;;;;;;;3.60;2.50;;;14.30;56.10;;;;;;5055613;28;20412;-77
2024/02/22 11:00:55;;;;;;;4.85;2.50;;;14.30;56.50;;;;;;5052375;28;20381;-75
2024/02/22 11:03:22;;;;;;;6.28;2.40;;;14.30;56.50;;;;;;5051371;28;20388;-75
2024/02/22 11:05:48;;;;;;;3.08;1.92;;;14.30;55.20;;;;;;5051243;28;20389;-77
2024/02/22 11:08:20;;;;;;;4.13;1.50;;;14.40;54.20;;;;;;5054401;28;20392;-76
2024/02/22 11:11:02;;;;;;;12.07;2.33;;;14.20;55.70;;;;;;5051576;28;20417;-76
2024/02/22 11:13:28;;;;;;;2.30;1.55;;;14.00;57.30;;;;;;5050249;28;20393;-77
2024/02/22 11:15:54;;;;;;;6.37;2.27;;;14.00;57.50;;;;;;5052113;28;20385;-76
2024/02/22 11:18:25;;;;;;;8.10;2.20;;;13.90;58.60;;;;;;5052439;28;20409;-77
2024/02/22 11:20:51;;;;;;;6.78;2.10;;;14.00;57.10;;;;;;5053244;28;20398;-76
2024/02/22 11:23:18;;;;;;;2.33;1.40;;;14.20;57.10;;;;;;5058908;28;20393;-74
2024/02/22 11:25:45;;;;;;;4.60;2.60;;;14.20;56.90;;;;;;5060700;28;20444;-77
2024/02/22 11:28:11;;;;;;;1.70;1.40;;;14.20;56.60;;;;;;5060181;28;20833;-76
2024/02/22 11:30:37;;;;;;;5.00;2.00;;;14.20;56.20;;;;;;5060756;28;20496;-76
2024/02/22 11:33:03;;;;;;;2.50;1.73;;;14.30;56.90;;;;;;5053604;28;20436;-75
2024/02/22 11:35:29;;;;;;;2.63;1.42;;;14.30;56.50;;;;;;5053208;28;20892;-77
2024/02/22 11:38:05;;;;;;;3.93;1.90;;;14.20;56.50;;;;;;5053620;28;20412;-77
2024/02/22 11:40:34;;;;;;;3.28;1.90;;;14.10;57.70;;;;;;5049810;28;20756;-77
2024/02/22 11:43:00;;;;;;;2.90;2.28;;;14.10;59.60;;;;;;5052434;28;20405;-76
2024/02/22 11:45:27;;;;;;;3.88;2.28;;;14.40;60.10;;;;;;5053894;28;20409;-77
2024/02/22 11:47:52;;;;;;;3.70;1.40;;;14.50;61.30;;;;;;5054932;28;20412;-77
2024/02/22 11:50:20;;;;;;;7.23;2.20;;;14.50;62.00;;;;;;5057446;28;20471;-77
2024/02/22 11:52:45;;;;;;;3.97;1.90;;;14.70;63.70;;;;;;5053611;28;20488;-77
2024/02/22 11:55:11;;;;;;;2.70;1.80;;;14.80;62.20;;;;;;5052398;28;20884;-77
2024/02/22 11:57:37;;;;;;;4.67;1.60;;;14.80;62.00;;;;;;5052925;28;20917;-77
2024/02/22 12:00:04;;;;;;;2.70;1.90;;;14.80;61.40;;;;;;5051911;28;20392;-76
2024/02/22 12:02:33;;;;;;;3.63;1.90;;;14.80;61.70;;;;;;5051043;28;20776;-76
2024/02/22 12:04:59;;;;;;;2.28;1.58;;;14.90;61.40;;;;;;5056787;28;20382;-76
2024/02/22 12:07:26;;;;;;;4.10;1.60;;;15.00;59.80;;;;;;5059909;28;20393;-77
2024/02/22 12:09:52;;;;;;;2.30;1.83;;;15.00;60.20;;;;;;5058595;28;20443;-77
2024/02/22 12:12:18;;;;;;;3.87;2.10;;;14.70;62.20;;;;;;5057113;28;20409;-77
2024/02/22 12:14:54;;;;;;;5.80;1.50;;;14.40;64.30;;;;;;5058409;28;20467;-77
2024/02/22 12:17:24;;;;;;;3.70;1.67;;;14.30;64.60;;;;;;5055473;28;20413;-75
2024/02/22 12:19:55;;;;;;;3.13;1.60;;;14.10;68.60;;;;;;5054417;28;20386;-77
2024/02/22 12:22:26;;;;;;;2.00;1.30;;;14.00;70.30;;;;;;5053146;28;20382;-75
2024/02/22 12:24:53;;;;;;;2.00;1.50;;;13.90;74.00;;;;;;5053575;28;20385;-75
2024/02/22 12:27:20;;;;;;;2.55;1.77;;;13.80;76.20;;;;;;5052113;28;22604;-76
2024/02/22 12:29:51;;;;;;;4.93;1.60;;;13.80;78.90;;;;;;5057083;28;20412;-75
2024/02/22 12:32:17;;;;;;;2.25;1.60;;;13.90;78.60;;;;;;5061199;28;20389;-75
2024/02/22 12:34:43;;;;;;;2.13;1.30;;;13.90;79.50;;;;;;5059283;28;20382;-76
2024/02/22 12:37:08;;;;;;;4.43;1.60;;;13.90;82.10;;;;;;5061561;28;20436;-74
2024/02/22 12:39:34;;;;;;;2.43;1.10;;;13.90;82.80;;;;;;5060513;28;20478;-75
2024/02/22 12:42:05;;;;;;;2.90;1.30;;;14.00;80.80;;;;;;5053103;28;20437;-78
2024/02/22 12:44:30;;;;;;;4.60;1.98;;;14.00;82.60;;;;;;5053159;28;20532;-77